Time;durP1;ratioP1;P1;durP2;ratioP2;P2;SDS_P1;SDS_P2;PMS_P1;PMS_P2;Temp;Humidity;BMP_temperature;BMP_pressure;BME280_temperature;BME280_humidity;BME280_pressure;Samples;Min_cycle;Max_cycle;Signal;HPM_P1;HPM_P2
2023/12/02 00:02:25;;;;;;;21.90;10.90;;;-1.00;98.10;;;;;;6269597;22;20091;-68
2023/12/02 00:05:11;;;;;;;22.52;11.88;;;-1.00;98.00;;;;;;6268690;22;20091;-68
2023/12/02 00:07:57;;;;;;;17.23;10.02;;;-1.00;98.00;;;;;;6267441;22;20538;-68
2023/12/02 00:10:44;;;;;;;23.33;12.18;;;-1.00;98.00;;;;;;6269874;22;20020;-68
2023/12/02 00:13:30;;;;;;;18.83;11.25;;;-1.10;97.90;;;;;;6268257;22;20077;-67
2023/12/02 00:16:16;;;;;;;19.90;10.40;;;-1.00;98.00;;;;;;6270908;22;20010;-68
2023/12/02 00:19:01;;;;;;;22.95;12.07;;;-1.00;98.00;;;;;;6269553;22;20007;-68
2023/12/02 00:21:48;;;;;;;21.20;10.65;;;-1.10;97.90;;;;;;6269079;22;20061;-67
2023/12/02 00:24:34;;;;;;;18.92;10.25;;;-1.10;97.90;;;;;;6267212;22;20414;-68
2023/12/02 00:27:20;;;;;;;26.67;13.00;;;-1.10;97.90;;;;;;6268443;22;20090;-67
2023/12/02 00:30:07;;;;;;;24.45;11.05;;;-1.10;97.90;;;;;;6269037;22;20012;-67
2023/12/02 00:32:53;;;;;;;23.88;11.73;;;-1.10;98.00;;;;;;6269218;22;20022;-68
2023/12/02 00:35:39;;;;;;;21.77;11.60;;;-1.10;98.00;;;;;;6268689;22;20355;-68
2023/12/02 00:38:25;;;;;;;27.02;13.27;;;-1.10;98.00;;;;;;6248063;22;20008;-68
2023/12/02 00:41:11;;;;;;;26.85;12.68;;;-1.10;98.00;;;;;;6269372;22;20031;-69
2023/12/02 00:43:57;;;;;;;25.58;13.00;;;-1.00;97.90;;;;;;6269010;22;20141;-69
2023/12/02 00:46:43;;;;;;;24.70;13.15;;;-1.10;97.90;;;;;;6268755;22;20011;-68
2023/12/02 00:49:28;;;;;;;26.38;13.02;;;-1.10;98.00;;;;;;6246477;22;20069;-67
2023/12/02 00:52:14;;;;;;;28.30;13.45;;;-1.20;97.90;;;;;;6270516;22;20012;-67
2023/12/02 00:55:00;;;;;;;24.98;12.07;;;-1.30;97.70;;;;;;6268899;22;20103;-67
2023/12/02 00:57:46;;;;;;;27.90;13.63;;;-1.30;97.90;;;;;;6269435;22;20578;-66
2023/12/02 01:00:32;;;;;;;26.85;13.30;;;-1.30;97.90;;;;;;6268461;22;20015;-68
2023/12/02 01:03:18;;;;;;;31.60;13.43;;;-1.30;97.90;;;;;;6245745;22;20447;-68
2023/12/02 01:06:04;;;;;;;26.63;12.35;;;-1.40;97.80;;;;;;6269569;22;20011;-68
2023/12/02 01:08:50;;;;;;;26.67;12.13;;;-1.40;97.90;;;;;;6271600;22;20362;-68
2023/12/02 01:11:36;;;;;;;30.35;14.07;;;-1.40;97.90;;;;;;6269713;22;20008;-68
2023/12/02 01:14:24;;;;;;;26.65;13.73;;;-1.40;97.80;;;;;;6269626;22;20482;-66
2023/12/02 01:17:10;;;;;;;28.73;13.48;;;-1.40;98.00;;;;;;6271389;22;20086;-67
2023/12/02 01:19:56;;;;;;;32.20;13.30;;;-1.40;98.00;;;;;;6271059;22;20422;-67
2023/12/02 01:22:41;;;;;;;26.25;13.23;;;-1.40;98.00;;;;;;6268897;22;20463;-67
2023/12/02 01:25:27;;;;;;;30.83;14.57;;;-1.40;98.00;;;;;;6269104;22;20086;-67
2023/12/02 01:28:13;;;;;;;29.17;13.60;;;-1.40;98.00;;;;;;6270441;22;20008;-67
2023/12/02 01:30:59;;;;;;;26.80;12.77;;;-1.40;98.00;;;;;;6270335;22;20008;-67
2023/12/02 01:33:45;;;;;;;26.98;13.23;;;-1.30;98.10;;;;;;6269169;22;20020;-68
2023/12/02 01:36:31;;;;;;;25.85;12.23;;;-1.30;98.30;;;;;;6270493;22;20019;-68
2023/12/02 01:39:17;;;;;;;29.05;15.75;;;-1.30;98.00;;;;;;6270490;22;20411;-68
2023/12/02 01:42:04;;;;;;;26.20;12.30;;;-1.40;98.00;;;;;;6269889;22;20008;-68
2023/12/02 01:44:50;;;;;;;24.55;13.10;;;-1.40;98.10;;;;;;6270724;22;20011;-66
2023/12/02 01:47:36;;;;;;;30.30;14.52;;;-1.40;98.10;;;;;;6248695;22;20015;-67
2023/12/02 01:50:22;;;;;;;28.17;13.63;;;-1.50;98.10;;;;;;6270495;22;20016;-65
2023/12/02 01:53:10;;;;;;;26.58;14.40;;;-1.40;98.20;;;;;;6270089;22;20094;-66
2023/12/02 01:55:55;;;;;;;30.33;14.63;;;-1.40;98.20;;;;;;6270225;22;20125;-67
2023/12/02 01:58:41;;;;;;;29.90;14.38;;;-1.50;98.10;;;;;;6270603;22;19999;-66
2023/12/02 02:01:28;;;;;;;29.52;15.48;;;-1.40;98.10;;;;;;6270468;22;20463;-66
2023/12/02 02:04:14;;;;;;;32.35;13.40;;;-1.40;98.10;;;;;;6269185;22;20482;-66
2023/12/02 02:07:00;;;;;;;27.23;12.32;;;-1.40;98.10;;;;;;6268768;22;20007;-66
2023/12/02 02:09:48;;;;;;;29.08;13.88;;;-1.40;98.20;;;;;;6269499;22;20019;-66
2023/12/02 02:12:34;;;;;;;23.67;13.15;;;-1.50;98.10;;;;;;6269840;22;20003;-66
2023/12/02 02:15:20;;;;;;;25.83;12.75;;;-1.50;98.10;;;;;;6270020;22;20494;-66
2023/12/02 02:18:06;;;;;;;30.48;13.43;;;-1.50;98.10;;;;;;6269122;22;20462;-66
2023/12/02 02:20:53;;;;;;;31.13;14.43;;;-1.40;98.10;;;;;;6270019;22;20046;-67
2023/12/02 02:23:39;;;;;;;29.27;14.10;;;-1.50;98.00;;;;;;6268686;22;20098;-66
2023/12/02 02:26:25;;;;;;;25.88;12.73;;;-1.50;97.90;;;;;;6271416;22;20008;-68
2023/12/02 02:29:11;;;;;;;26.45;12.40;;;-1.60;97.90;;;;;;6270051;22;20142;-68
2023/12/02 02:31:57;;;;;;;27.83;13.02;;;-1.60;97.90;;;;;;6247754;22;20043;-68
2023/12/02 02:34:44;;;;;;;28.95;12.43;;;-1.70;97.80;;;;;;6271607;22;20020;-68
2023/12/02 02:37:30;;;;;;;24.58;12.15;;;-1.80;97.90;;;;;;6269190;22;20498;-68
2023/12/02 02:40:16;;;;;;;27.38;12.38;;;-1.80;97.90;;;;;;6270727;22;20485;-68
2023/12/02 02:43:02;;;;;;;28.10;12.38;;;-1.80;97.80;;;;;;6270275;22;20035;-67
2023/12/02 02:45:49;;;;;;;28.25;12.57;;;-1.90;97.70;;;;;;6270893;22;20354;-67
2023/12/02 02:48:36;;;;;;;23.92;11.35;;;-2.00;97.80;;;;;;6269498;22;20011;-67
2023/12/02 02:51:22;;;;;;;29.50;12.65;;;-2.10;97.60;;;;;;6269256;22;20008;-66
2023/12/02 02:54:08;;;;;;;29.77;12.32;;;-2.20;97.60;;;;;;6268971;22;20107;-66
2023/12/02 02:56:54;;;;;;;25.38;12.60;;;-2.20;97.60;;;;;;6268968;22;20018;-66
2023/12/02 02:59:40;;;;;;;26.75;12.65;;;-2.20;97.70;;;;;;6271213;22;20065;-67
2023/12/02 03:02:26;;;;;;;24.65;12.38;;;-2.30;97.70;;;;;;6269823;22;20007;-67
2023/12/02 03:05:12;;;;;;;23.33;10.90;;;-2.30;97.70;;;;;;6269903;22;20015;-66
2023/12/02 03:07:58;;;;;;;26.35;13.18;;;-2.30;97.70;;;;;;6268448;22;20362;-66
2023/12/02 03:10:48;;;;;;;34.55;13.15;;;-2.30;97.80;;;;;;6271194;22;20032;-66
2023/12/02 03:13:34;;;;;;;28.95;12.15;;;-2.30;97.90;;;;;;6268868;22;20098;-67
2023/12/02 03:16:20;;;;;;;27.00;12.45;;;-2.20;97.90;;;;;;6269386;22;20008;-67
2023/12/02 03:19:06;;;;;;;26.02;12.05;;;-2.20;98.00;;;;;;6268648;22;20024;-67
2023/12/02 03:21:52;;;;;;;28.48;12.25;;;-2.20;98.00;;;;;;6269128;22;20026;-65
2023/12/02 03:24:38;;;;;;;28.98;12.35;;;-2.10;98.00;;;;;;6269610;22;20019;-65
2023/12/02 03:27:24;;;;;;;27.10;11.32;;;-2.10;98.00;;;;;;6270550;22;20008;-65
2023/12/02 03:30:10;;;;;;;23.13;10.38;;;-2.00;98.10;;;;;;6271889;22;20069;-66
2023/12/02 03:32:56;;;;;;;24.55;11.65;;;-2.00;98.00;;;;;;6269099;22;20004;-65
2023/12/02 03:35:42;;;;;;;24.80;11.32;;;-1.90;98.10;;;;;;6269234;22;20066;-66
2023/12/02 03:38:28;;;;;;;22.08;10.98;;;-1.90;98.10;;;;;;6270614;22;20120;-66
2023/12/02 03:41:14;;;;;;;26.08;12.10;;;-1.80;98.10;;;;;;6269227;22;20094;-66
2023/12/02 03:44:00;;;;;;;19.40;10.95;;;-1.80;98.10;;;;;;6269260;22;20596;-66
2023/12/02 03:46:46;;;;;;;24.70;11.77;;;-1.80;98.10;;;;;;6269311;22;20536;-67
2023/12/02 03:49:31;;;;;;;21.83;10.77;;;-1.80;98.10;;;;;;6269183;22;20416;-67
2023/12/02 03:52:17;;;;;;;24.08;11.60;;;-1.70;98.10;;;;;;6246280;22;20081;-66
2023/12/02 03:55:04;;;;;;;22.13;11.48;;;-1.80;98.00;;;;;;6268571;22;20383;-65
2023/12/02 03:57:50;;;;;;;22.30;11.18;;;-1.80;98.00;;;;;;6269315;22;20026;-66
2023/12/02 04:00:35;;;;;;;22.10;10.68;;;-1.80;98.00;;;;;;6269341;22;20004;-66
2023/12/02 04:03:22;;;;;;;20.15;10.02;;;-1.80;98.10;;;;;;6268864;22;20008;-66
2023/12/02 04:06:08;;;;;;;24.80;11.95;;;-1.80;97.90;;;;;;6269075;22;20011;-66
2023/12/02 04:08:54;;;;;;;19.20;10.00;;;-1.90;98.00;;;;;;6268968;22;20008;-66
2023/12/02 04:11:40;;;;;;;21.63;9.48;;;-1.80;98.10;;;;;;6269349;22;20023;-66
2023/12/02 04:14:26;;;;;;;17.95;8.77;;;-1.80;98.10;;;;;;6269604;22;20020;-66
2023/12/02 04:17:12;;;;;;;21.67;9.23;;;-1.70;98.10;;;;;;6269479;22;20082;-66
2023/12/02 04:19:58;;;;;;;19.83;9.02;;;-1.70;98.10;;;;;;6269168;22;20035;-67
2023/12/02 04:22:44;;;;;;;18.42;8.57;;;-1.70;98.10;;;;;;6270206;22;20453;-66
2023/12/02 04:25:30;;;;;;;17.48;8.63;;;-1.70;98.10;;;;;;6268509;22;20018;-67
2023/12/02 04:28:16;;;;;;;18.92;8.88;;;-1.70;98.20;;;;;;6246506;22;20095;-67
2023/12/02 04:31:03;;;;;;;18.02;9.23;;;-1.60;98.20;;;;;;6247954;22;20004;-66
2023/12/02 04:33:48;;;;;;;17.63;8.77;;;-1.60;98.20;;;;;;6269421;22;20019;-66
2023/12/02 04:36:34;;;;;;;15.75;8.38;;;-1.50;98.20;;;;;;6247820;22;20023;-66
2023/12/02 04:39:22;;;;;;;15.57;8.48;;;-1.50;98.10;;;;;;6249090;22;20015;-67
2023/12/02 04:42:08;;;;;;;16.25;8.55;;;-1.50;98.10;;;;;;6273632;22;20042;-67
2023/12/02 04:44:54;;;;;;;16.23;8.55;;;-1.60;98.00;;;;;;6273183;22;20400;-65
2023/12/02 04:47:40;;;;;;;16.92;8.52;;;-1.70;97.70;;;;;;6271265;22;20007;-66
2023/12/02 04:50:27;;;;;;;17.40;7.97;;;-1.90;97.70;;;;;;6272433;22;20039;-67
2023/12/02 04:53:13;;;;;;;15.15;7.45;;;-1.90;97.90;;;;;;6272545;22;20096;-66
2023/12/02 04:55:59;;;;;;;15.88;6.55;;;-2.00;97.90;;;;;;6271223;22;20091;-67
2023/12/02 04:58:45;;;;;;;14.93;8.18;;;-2.10;97.70;;;;;;6271382;22;20069;-68
2023/12/02 05:01:31;;;;;;;16.83;7.80;;;-2.20;97.80;;;;;;6273623;22;20018;-66
2023/12/02 05:04:17;;;;;;;16.88;8.63;;;-2.10;98.00;;;;;;6273342;22;20098;-68
2023/12/02 05:07:03;;;;;;;14.75;7.47;;;-2.00;98.00;;;;;;6272676;22;20012;-68
2023/12/02 05:09:49;;;;;;;18.30;8.13;;;-2.00;97.90;;;;;;6271826;22;20058;-67
2023/12/02 05:12:36;;;;;;;18.42;7.97;;;-2.00;97.90;;;;;;6273025;22;20008;-68
2023/12/02 05:15:22;;;;;;;16.40;8.27;;;-2.00;97.90;;;;;;6272163;22;20050;-68
2023/12/02 05:18:08;;;;;;;14.52;7.43;;;-1.90;97.90;;;;;;6272448;22;20494;-68
2023/12/02 05:20:54;;;;;;;14.38;7.30;;;-1.90;97.80;;;;;;6272163;22;20030;-68
2023/12/02 05:23:40;;;;;;;14.80;7.63;;;-1.90;97.80;;;;;;6272811;22;20533;-67
2023/12/02 05:26:26;;;;;;;16.20;7.38;;;-1.90;97.80;;;;;;6269829;22;20019;-67
2023/12/02 05:29:12;;;;;;;14.38;8.65;;;-1.90;97.80;;;;;;6272138;22;20014;-67
2023/12/02 05:31:58;;;;;;;14.60;7.07;;;-1.90;97.70;;;;;;6272089;22;20015;-67
2023/12/02 05:34:44;;;;;;;14.90;7.47;;;-1.80;97.70;;;;;;6274264;22;20023;-67
2023/12/02 05:37:30;;;;;;;14.90;7.40;;;-1.90;97.70;;;;;;6272989;22;20068;-67
2023/12/02 05:40:16;;;;;;;13.15;6.43;;;-1.80;97.70;;;;;;6272154;22;20065;-67
2023/12/02 05:43:02;;;;;;;13.40;7.00;;;-1.80;97.60;;;;;;6270908;22;20490;-67
2023/12/02 05:45:48;;;;;;;17.33;8.30;;;-1.80;97.60;;;;;;6272371;22;20011;-67
2023/12/02 05:48:34;;;;;;;14.48;7.93;;;-1.80;97.60;;;;;;6272589;22;20481;-61
2023/12/02 05:51:20;;;;;;;14.25;7.32;;;-1.80;97.60;;;;;;6271119;22;20401;-61
2023/12/02 05:54:09;;;;;;;18.27;9.07;;;-1.80;97.60;;;;;;6247903;22;20023;-62
2023/12/02 05:56:55;;;;;;;15.77;7.80;;;-1.70;97.60;;;;;;6272168;22;20043;-64
2023/12/02 05:59:41;;;;;;;14.48;7.60;;;-1.70;97.60;;;;;;6270736;22;20069;-64
2023/12/02 06:02:27;;;;;;;13.77;7.32;;;-1.70;97.60;;;;;;6269522;22;20012;-66
2023/12/02 06:05:13;;;;;;;12.98;7.72;;;-1.60;97.60;;;;;;6269197;22;20011;-65
2023/12/02 06:07:58;;;;;;;13.77;7.03;;;-1.60;97.70;;;;;;6269040;22;20034;-68
2023/12/02 06:10:44;;;;;;;14.43;6.80;;;-1.60;97.70;;;;;;6270466;22;20053;-67
2023/12/02 06:13:30;;;;;;;12.68;7.25;;;-1.60;97.70;;;;;;6269142;22;20019;-66
2023/12/02 06:16:16;;;;;;;17.98;7.55;;;-1.60;97.70;;;;;;6268501;22;20007;-67
2023/12/02 06:19:02;;;;;;;11.75;6.45;;;-1.60;97.70;;;;;;6271824;22;20019;-66
2023/12/02 06:21:48;;;;;;;12.75;6.72;;;-1.60;97.60;;;;;;6267962;22;20051;-66
2023/12/02 06:24:34;;;;;;;13.75;6.20;;;-1.60;97.60;;;;;;6269369;22;20012;-65
2023/12/02 06:27:20;;;;;;;10.70;6.40;;;-1.60;97.70;;;;;;6270416;22;20015;-65
2023/12/02 06:30:07;;;;;;;12.15;6.05;;;-1.60;97.70;;;;;;6270706;22;20047;-65
2023/12/02 06:32:52;;;;;;;11.65;6.55;;;-1.60;97.80;;;;;;6270879;22;20027;-66
2023/12/02 06:35:38;;;;;;;12.05;6.50;;;-1.50;97.80;;;;;;6269957;22;20012;-65
2023/12/02 06:38:24;;;;;;;12.25;6.68;;;-1.50;97.80;;;;;;6270706;22;20011;-65
2023/12/02 06:41:10;;;;;;;12.82;6.60;;;-1.50;97.80;;;;;;6269528;22;20007;-66
2023/12/02 06:43:56;;;;;;;12.75;6.97;;;-1.50;97.90;;;;;;6270979;22;20105;-66
2023/12/02 06:46:42;;;;;;;10.48;5.75;;;-1.40;97.90;;;;;;6269777;22;20015;-66
2023/12/02 06:49:28;;;;;;;12.00;6.18;;;-1.40;97.80;;;;;;6270851;22;20011;-66
2023/12/02 06:52:14;;;;;;;12.48;6.65;;;-1.40;97.80;;;;;;6270732;22;20046;-67
2023/12/02 06:55:00;;;;;;;12.38;7.18;;;-1.30;97.90;;;;;;6268101;22;20022;-65
2023/12/02 06:57:46;;;;;;;10.15;5.65;;;-1.20;97.90;;;;;;6269457;22;20012;-66
2023/12/02 07:00:32;;;;;;;13.63;6.95;;;-1.20;97.80;;;;;;6269182;22;20030;-66
2023/12/02 07:03:19;;;;;;;12.23;7.45;;;-1.20;97.80;;;;;;6269027;22;20666;-66
2023/12/02 07:06:05;;;;;;;14.55;6.90;;;-1.10;97.80;;;;;;6268058;22;20011;-66
2023/12/02 07:08:52;;;;;;;11.05;6.30;;;-1.10;97.70;;;;;;6270421;22;20082;-66
2023/12/02 07:11:38;;;;;;;10.85;6.32;;;-1.10;97.70;;;;;;6271354;22;20008;-67
2023/12/02 07:14:24;;;;;;;13.88;7.05;;;-1.10;97.60;;;;;;6269870;22;20031;-65
2023/12/02 07:17:10;;;;;;;14.25;6.20;;;-1.10;97.60;;;;;;6269053;22;20020;-64
2023/12/02 07:19:56;;;;;;;10.13;5.65;;;-1.00;97.60;;;;;;6268935;22;20080;-65
2023/12/02 07:22:42;;;;;;;12.27;6.43;;;-1.10;97.60;;;;;;6269539;22;20023;-65
2023/12/02 07:25:28;;;;;;;14.82;8.10;;;-1.00;97.60;;;;;;6268973;22;20016;-65
2023/12/02 07:28:14;;;;;;;12.90;6.55;;;-0.90;97.60;;;;;;6268874;22;20459;-65
2023/12/02 07:31:00;;;;;;;11.93;6.25;;;-0.90;97.70;;;;;;6268867;22;20371;-65
2023/12/02 07:33:46;;;;;;;11.30;6.28;;;-0.90;97.60;;;;;;6269130;22;20022;-65
2023/12/02 07:36:32;;;;;;;11.15;6.18;;;-0.90;97.60;;;;;;6245770;22;20454;-65
2023/12/02 07:39:18;;;;;;;13.02;7.32;;;-0.90;97.60;;;;;;6267706;22;20018;-65
2023/12/02 07:42:04;;;;;;;10.68;5.65;;;-0.80;97.60;;;;;;6267512;22;20035;-65
2023/12/02 07:44:50;;;;;;;12.20;5.60;;;-0.80;97.60;;;;;;6265813;22;20420;-66
2023/12/02 07:47:36;;;;;;;12.35;6.05;;;-0.80;97.60;;;;;;6246791;22;20375;-67
2023/12/02 07:50:22;;;;;;;10.27;5.45;;;-0.80;97.60;;;;;;6266858;22;20023;-67
2023/12/02 07:53:08;;;;;;;10.23;5.65;;;-0.70;97.70;;;;;;6268559;22;20007;-66
2023/12/02 07:55:54;;;;;;;8.63;4.55;;;-0.70;97.70;;;;;;6268041;22;20467;-66
2023/12/02 07:58:40;;;;;;;12.23;5.43;;;-0.70;97.60;;;;;;6269992;22;20447;-65
2023/12/02 08:01:26;;;;;;;11.15;5.75;;;-0.70;97.50;;;;;;6268931;22;20064;-65
2023/12/02 08:04:12;;;;;;;10.48;5.75;;;-0.70;97.60;;;;;;6268341;22;20008;-65
2023/12/02 08:06:58;;;;;;;6.70;4.57;;;-0.70;97.60;;;;;;6267649;22;20016;-68
2023/12/02 08:09:44;;;;;;;8.43;4.80;;;-0.70;97.60;;;;;;6268122;22;20007;-67
2023/12/02 08:12:30;;;;;;;10.68;5.35;;;-0.60;97.70;;;;;;6267696;22;20398;-67
2023/12/02 08:15:16;;;;;;;10.05;5.40;;;-0.70;97.60;;;;;;6268597;22;20030;-67
2023/12/02 08:18:03;;;;;;;8.95;5.28;;;-0.70;97.40;;;;;;6268367;22;20011;-65
2023/12/02 08:20:48;;;;;;;10.80;5.65;;;-0.70;97.60;;;;;;6268610;22;20012;-66
2023/12/02 08:23:34;;;;;;;9.68;4.90;;;-0.70;97.60;;;;;;6269100;22;20852;-66
2023/12/02 08:26:20;;;;;;;13.02;5.60;;;-0.70;97.60;;;;;;6269157;22;20007;-66
2023/12/02 08:29:06;;;;;;;8.82;5.32;;;-0.70;97.50;;;;;;6266518;22;20378;-66
2023/12/02 08:31:52;;;;;;;11.50;5.70;;;-0.70;97.70;;;;;;6269109;22;20482;-66
2023/12/02 08:34:38;;;;;;;12.32;6.03;;;-0.60;97.80;;;;;;6247330;22;20015;-66
2023/12/02 08:37:25;;;;;;;10.18;5.30;;;-0.50;97.90;;;;;;6269591;22;20027;-65
2023/12/02 08:40:11;;;;;;;10.90;6.07;;;-0.50;97.90;;;;;;6267682;22;20008;-65
2023/12/02 08:42:57;;;;;;;8.38;5.70;;;-0.50;97.90;;;;;;6267566;22;20008;-65
2023/12/02 08:45:43;;;;;;;10.30;5.05;;;-0.40;98.00;;;;;;6268845;22;20019;-65
2023/12/02 08:48:29;;;;;;;11.95;7.13;;;-0.40;98.00;;;;;;6266896;22;20004;-65
2023/12/02 08:51:15;;;;;;;9.68;5.40;;;-0.30;98.00;;;;;;6268546;22;20016;-65
2023/12/02 08:54:03;;;;;;;9.65;5.65;;;-0.30;98.00;;;;;;6269264;22;20437;-66
2023/12/02 08:56:49;;;;;;;7.55;4.43;;;-0.20;98.00;;;;;;6268042;22;20039;-66
2023/12/02 08:59:35;;;;;;;12.60;6.22;;;-0.10;98.00;;;;;;6266772;22;20091;-66
2023/12/02 09:02:21;;;;;;;11.00;5.53;;;-0.10;98.00;;;;;;6268165;22;20012;-66
2023/12/02 09:05:08;;;;;;;11.93;5.95;;;-0.20;98.00;;;;;;6266875;22;20007;-64
2023/12/02 09:07:54;;;;;;;10.13;5.70;;;-0.10;98.00;;;;;;6268289;22;20070;-63
2023/12/02 09:10:40;;;;;;;17.10;6.90;;;0.00;98.10;;;;;;6269142;22;20071;-65
2023/12/02 09:13:39;;;;;;;11.45;6.07;;;0.00;98.10;;;;;;6247118;22;20374;-64
2023/12/02 09:16:28;;;;;;;13.48;7.97;;;0.10;98.10;;;;;;6269113;22;20015;-65
2023/12/02 09:19:42;;;;;;;13.18;7.20;;;0.10;98.20;;;;;;6267321;22;20055;-65
2023/12/02 09:22:46;;;;;;;17.85;8.07;;;0.10;98.10;;;;;;6270000;22;20349;-67
2023/12/02 09:25:35;;;;;;;13.27;7.15;;;0.10;98.20;;;;;;6269224;22;20008;-67
2023/12/02 09:28:23;;;;;;;12.93;6.68;;;0.10;98.20;;;;;;6271202;22;20008;-67
2023/12/02 09:31:09;;;;;;;12.02;6.85;;;0.20;98.20;;;;;;6269541;22;20008;-67
2023/12/02 09:33:58;;;;;;;15.38;8.43;;;0.20;98.20;;;;;;6269757;22;20081;-67
2023/12/02 09:36:44;;;;;;;17.77;8.85;;;0.20;98.10;;;;;;6269834;22;20294;-66
2023/12/02 09:40:06;;;;;;;17.55;9.38;;;0.10;98.10;;;;;;6271085;22;20042;-67
2023/12/02 09:43:08;;;;;;;14.10;7.45;;;0.20;98.20;;;;;;6270071;22;20362;-67
2023/12/02 09:46:06;;;;;;;16.08;8.02;;;0.30;98.30;;;;;;6270630;22;20099;-67
2023/12/02 09:49:10;;;;;;;13.43;7.43;;;0.40;98.30;;;;;;6270425;22;20489;-67
2023/12/02 09:52:14;;;;;;;13.90;8.02;;;0.50;98.20;;;;;;6267996;22;20012;-67
2023/12/02 09:55:29;;;;;;;19.40;9.35;;;0.60;98.20;;;;;;6270918;22;20018;-67
2023/12/02 09:58:24;;;;;;;14.13;8.55;;;0.60;98.10;;;;;;6233438;22;20123;-67
2023/12/02 10:01:37;;;;;;;16.70;9.68;;;0.70;98.10;;;;;;6270189;22;20004;-65
2023/12/02 10:04:45;;;;;;;15.90;8.23;;;0.70;98.00;;;;;;6268902;22;20118;-65
2023/12/02 10:07:48;;;;;;;15.73;8.10;;;0.80;98.10;;;;;;6269421;22;20008;-65
2023/12/02 10:11:03;;;;;;;16.27;8.20;;;0.90;98.10;;;;;;6269377;22;20474;-66
2023/12/02 10:14:02;;;;;;;15.40;8.38;;;0.90;98.20;;;;;;6269406;22;20081;-66
2023/12/02 10:16:51;;;;;;;14.48;8.30;;;1.00;98.10;;;;;;6270010;22;20007;-66
2023/12/02 10:19:46;;;;;;;19.52;11.18;;;1.00;98.00;;;;;;6270337;22;20382;-66
2023/12/02 10:22:34;;;;;;;14.32;9.25;;;1.00;98.10;;;;;;6270281;22;20019;-68
2023/12/02 10:25:33;;;;;;;13.73;8.07;;;1.00;98.20;;;;;;6270006;22;20072;-68
2023/12/02 10:28:53;;;;;;;16.90;8.40;;;0.90;97.90;;;;;;6271711;22;20018;-67
2023/12/02 10:31:50;;;;;;;17.25;8.50;;;0.90;98.20;;;;;;6271067;22;20382;-67
2023/12/02 10:34:55;;;;;;;17.65;9.02;;;0.90;98.10;;;;;;6269324;22;20144;-68
2023/12/02 10:37:43;;;;;;;18.48;9.43;;;0.80;98.10;;;;;;6271136;22;20371;-68
2023/12/02 10:40:30;;;;;;;16.85;8.90;;;0.80;98.20;;;;;;6269831;22;20110;-67
2023/12/02 10:43:36;;;;;;;15.15;8.50;;;0.90;98.30;;;;;;6267785;22;20019;-67
2023/12/02 10:46:24;;;;;;;19.00;9.60;;;0.90;98.30;;;;;;6267761;22;20003;-65
2023/12/02 10:49:12;;;;;;;18.50;9.50;;;0.90;98.30;;;;;;6268351;22;20014;-65
2023/12/02 10:52:02;;;;;;;14.35;7.60;;;0.80;98.10;;;;;;6267380;22;20078;-65
2023/12/02 10:54:52;;;;;;;15.18;8.38;;;0.70;98.10;;;;;;6268810;22;20021;-65
2023/12/02 10:57:39;;;;;;;16.73;8.00;;;0.70;98.20;;;;;;6268552;22;20069;-67
2023/12/02 11:00:33;;;;;;;14.88;7.85;;;0.70;98.20;;;;;;6268486;22;20020;-65
2023/12/02 11:03:37;;;;;;;13.18;7.13;;;0.80;98.20;;;;;;6271021;22;20019;-66
2023/12/02 11:06:31;;;;;;;13.80;8.63;;;0.70;97.90;;;;;;6266588;22;20027;-65
2023/12/02 11:09:42;;;;;;;11.55;6.93;;;0.60;98.00;;;;;;6267253;22;20407;-65
2023/12/02 11:12:51;;;;;;;15.73;7.82;;;0.60;98.10;;;;;;6267957;22;20014;-66
2023/12/02 11:16:05;;;;;;;12.80;7.15;;;0.60;98.10;;;;;;6269682;22;20026;-67
2023/12/02 11:19:11;;;;;;;14.32;7.05;;;0.60;98.10;;;;;;6270128;22;20011;-66
2023/12/02 12:05:04;;;;;;;11.80;5.13;;;0.30;97.90;;;;;;6258767;22;20027;-65
2023/12/02 12:08:20;;;;;;;9.98;4.70;;;0.40;98.00;;;;;;6267946;22;20058;-65
2023/12/02 12:11:11;;;;;;;10.25;5.03;;;0.30;97.90;;;;;;6268225;22;20147;-65
2023/12/02 12:13:59;;;;;;;11.10;5.88;;;0.30;97.90;;;;;;6264772;22;20019;-64
2023/12/02 12:16:45;;;;;;;11.00;6.07;;;0.30;97.70;;;;;;6245615;22;20004;-65
2023/12/02 12:19:31;;;;;;;11.13;5.70;;;0.10;97.80;;;;;;6267335;22;20448;-65
2023/12/02 12:22:17;;;;;;;12.68;6.53;;;0.10;97.80;;;;;;6268702;22;20099;-65
2023/12/02 12:25:03;;;;;;;11.50;6.43;;;0.00;97.90;;;;;;6267200;22;20102;-65
2023/12/02 12:27:49;;;;;;;11.02;6.55;;;0.00;97.90;;;;;;6268466;22;20003;-65
2023/12/02 12:30:42;;;;;;;9.75;5.32;;;0.00;98.00;;;;;;6268856;22;20015;-65
2023/12/02 12:33:29;;;;;;;12.13;6.55;;;0.10;98.10;;;;;;6246302;22;20008;-66
2023/12/02 12:36:30;;;;;;;13.52;6.78;;;0.10;98.10;;;;;;6266690;22;20016;-65
2023/12/02 12:39:16;;;;;;;12.65;6.10;;;0.10;98.10;;;;;;6267566;22;20467;-64
2023/12/02 12:42:03;;;;;;;15.02;7.13;;;0.00;97.90;;;;;;6266636;22;20011;-63
2023/12/02 12:44:49;;;;;;;15.18;6.95;;;0.00;98.00;;;;;;6268149;22;20008;-64
2023/12/02 12:47:35;;;;;;;11.40;6.53;;;-0.10;98.00;;;;;;6268228;22;20011;-64
2023/12/02 12:50:22;;;;;;;11.35;6.68;;;-0.10;98.10;;;;;;6268837;22;20008;-66
2023/12/02 12:53:10;;;;;;;14.90;6.82;;;-0.10;98.10;;;;;;6267375;22;20398;-65
2023/12/02 12:56:07;;;;;;;15.00;6.63;;;-0.20;98.10;;;;;;6268038;22;20018;-64
2023/12/02 12:58:59;;;;;;;13.23;6.60;;;-0.30;98.20;;;;;;6269012;22;20015;-65
2023/12/02 13:01:49;;;;;;;13.85;7.55;;;-0.30;98.40;;;;;;6271527;22;20459;-66
2023/12/02 13:04:41;;;;;;;14.25;7.75;;;-0.30;98.40;;;;;;6270849;22;20015;-67
2023/12/02 13:07:44;;;;;;;15.38;8.00;;;-0.30;98.50;;;;;;6270729;22;20011;-66
2023/12/02 13:10:33;;;;;;;17.00;8.30;;;-0.20;98.50;;;;;;6272611;22;20008;-67
2023/12/02 13:13:20;;;;;;;15.40;7.88;;;-0.20;98.60;;;;;;6270186;22;20373;-65
2023/12/02 13:16:09;;;;;;;14.98;7.72;;;-0.20;98.60;;;;;;6270272;22;20090;-65
2023/12/02 13:18:59;;;;;;;15.52;7.70;;;-0.30;98.60;;;;;;6269325;22;20090;-65
2023/12/02 13:21:49;;;;;;;18.40;8.88;;;-0.30;98.60;;;;;;6270601;22;20004;-64
2023/12/02 13:24:40;;;;;;;14.95;8.13;;;-0.20;98.70;;;;;;6271003;22;20012;-64
2023/12/02 13:27:56;;;;;;;14.35;7.25;;;-0.20;98.70;;;;;;6271345;22;20050;-64
2023/12/02 13:30:43;;;;;;;15.55;7.53;;;-0.10;98.70;;;;;;6269079;22;20075;-64
2023/12/02 13:34:06;;;;;;;17.63;8.57;;;-0.10;98.70;;;;;;6269838;22;20478;-65
2023/12/02 13:36:54;;;;;;;14.48;8.30;;;0.00;98.70;;;;;;6268805;22;20070;-65
2023/12/02 13:39:43;;;;;;;14.10;7.07;;;0.00;98.70;;;;;;6269248;22;20409;-65
2023/12/02 13:42:36;;;;;;;14.70;7.85;;;0.00;98.70;;;;;;6267894;22;20003;-65
2023/12/02 13:45:25;;;;;;;9.95;6.00;;;0.00;98.70;;;;;;6270367;22;20052;-65
2023/12/02 13:48:22;;;;;;;14.02;8.50;;;0.00;98.70;;;;;;6270705;22;20003;-64
2023/12/02 13:51:40;;;;;;;14.52;8.70;;;0.10;98.80;;;;;;6267614;22;20394;-66
2023/12/02 13:54:46;;;;;;;15.13;8.57;;;0.00;98.70;;;;;;6271521;22;20023;-66
2023/12/02 13:57:56;;;;;;;14.32;7.97;;;0.10;98.80;;;;;;6270521;22;20014;-66
2023/12/02 14:01:06;;;;;;;16.02;8.43;;;0.10;98.80;;;;;;6268565;22;20031;-65
2023/12/02 14:04:34;;;;;;;17.48;9.07;;;0.00;98.80;;;;;;6268335;22;20008;-66
2023/12/02 14:07:23;;;;;;;16.15;8.90;;;-0.10;98.90;;;;;;6271838;22;20023;-65
2023/12/02 14:10:11;;;;;;;15.15;9.25;;;-0.10;99.00;;;;;;6269409;22;20490;-65
2023/12/02 14:13:35;;;;;;;16.50;8.68;;;0.00;99.10;;;;;;6269423;22;20008;-64
2023/12/02 14:16:49;;;;;;;13.63;8.02;;;0.00;99.10;;;;;;6272037;22;20026;-65
2023/12/02 14:19:35;;;;;;;17.02;8.73;;;0.10;99.10;;;;;;6247619;22;20030;-66
2023/12/02 14:22:59;;;;;;;14.98;8.38;;;0.00;99.10;;;;;;6247108;22;20011;-66
2023/12/02 14:26:35;;;;;;;10.57;6.47;;;0.00;99.20;;;;;;6208361;22;20007;-65
2023/12/02 14:29:47;;;;;;;13.63;7.45;;;0.00;99.10;;;;;;6158869;22;20043;-65
2023/12/02 14:33:04;;;;;;;15.98;7.85;;;0.10;99.10;;;;;;6269979;22;20066;-66
2023/12/02 14:36:18;;;;;;;13.93;7.65;;;0.20;99.10;;;;;;6268517;22;20479;-67
2023/12/02 14:39:20;;;;;;;9.70;5.95;;;0.30;99.10;;;;;;6268556;22;20012;-66
2023/12/02 14:42:14;;;;;;;12.52;6.38;;;0.30;99.10;;;;;;6268740;22;20022;-66
2023/12/02 14:45:01;;;;;;;12.60;7.05;;;0.40;99.10;;;;;;6268372;22;20015;-66
2023/12/02 14:48:01;;;;;;;11.15;6.70;;;0.50;99.10;;;;;;6269317;22;20039;-66
2023/12/02 14:50:48;;;;;;;13.20;7.32;;;0.60;99.30;;;;;;6269788;22;20003;-66
2023/12/02 14:53:35;;;;;;;12.85;7.47;;;0.60;99.10;;;;;;6268670;22;20094;-66
2023/12/02 14:56:41;;;;;;;15.00;7.85;;;0.70;99.10;;;;;;6268067;22;20011;-66
2023/12/02 14:59:27;;;;;;;12.98;7.88;;;0.70;99.00;;;;;;6269077;22;20008;-66
2023/12/02 15:02:49;;;;;;;15.70;8.38;;;0.70;99.10;;;;;;6269131;22;20023;-66
2023/12/02 15:05:35;;;;;;;12.90;7.85;;;0.70;99.20;;;;;;6268119;22;20055;-65
2023/12/02 15:08:21;;;;;;;15.40;8.52;;;0.70;99.10;;;;;;6268617;22;20011;-65
2023/12/02 15:11:10;;;;;;;17.05;8.77;;;0.80;99.20;;;;;;6269609;22;20087;-65
2023/12/02 15:13:57;;;;;;;13.93;8.43;;;0.80;99.10;;;;;;6248254;22;20031;-67
2023/12/02 15:16:43;;;;;;;14.63;8.93;;;0.80;99.10;;;;;;6268899;22;20090;-66
2023/12/02 15:19:30;;;;;;;16.92;9.88;;;0.80;99.10;;;;;;6265772;22;20015;-67